Aeroporto :
LOGIN :

Iscrizione | Disclaimer

   EN    FR    IT 

 










Sommario :    VFR   VFR Marginale   IFR   IFR Intensivo   IFR Molto Intensivo
Visibilità : 
Base nubi : 
>= 8 km
>= 3000ft
5 / 8 km
1000 / 3000 ft
1500m / 5 km
500 / 1000 ft
800 / 1500m
200 / 500 ft
< 800m
< 200 ft
Simboli :   Temporali  Nebbia  Neve Forte  Precipitazioni Forti  Vento > 20 kt
SIGMETs :   Varie  Temporali  Ghiacco  Turbolenza  Onda orograficha  Ceneri Vulcaniche






- Altitudine del aeroporto : 412 ft
- Codice IATA : ADB


LTBJ - Adnan Menderes

ULTIMO METAR :
  • 271420Z 26006KT 220V300 9999 SCT030 BKN100 17/11 Q1014 BECMG 35013KT

METARs OBSOLETI :
  • 271350Z 26006KT 230V300 9999 SCT030 BKN100 16/12 Q1014 RESHRA BECMG 35013KT
  • 271320Z VRB02KT 9999 -SHRA SCT030 BKN100 16/13 Q1014 BECMG 35013KT
  • 271250Z VRB01KT 9999 -SHRA SCT030 BKN100 15/14 Q1014 BECMG 35013KT
  • 271220Z 02004KT 9999 -SHRA SCT030 BKN100 14/13 Q1014 NOSIG RMK RWY16 03005KT
  • 271150Z 33007KT 280V360 9999 -SHRA SCT030 BKN100 14/13 Q1014 NOSIG RMK RWY16 33007KT 300V360

TAF TAF LTBJ
Valido dal 27 a 12 ore il 28 a 12 ore UTC


271040Z 2712/2812 35013KT 9999 SCT030 BKN100
TEMPO 2712/2716 -TSRA FEW020CB BKN025
BECMG 2802/2805 CAVOK
BECMG 2807/2809 36015G25KT SCT030
PROB30
TEMPO 2810/2812 -SHRA



MetMap, La meteo Aeronautica in un colpo d'occhio ! - Copyright ORBIFLY Dicembre 2007 - Disclaimer

ORBIFLY MET'MAP TEAM :

Programmazione e sviluppo : Alexandra Zaïnal
Concezione : Baudouin d'Aumeries
Aiuto per la programmazione : Marc-Olivier Méhu
Supporto tecnico e logistico : Manuel Goepfert
Aiuto per la traduzione : Arnaldo La Scala

Contatto : metmap@orbifly.com




FONTI E CREDITI :

   NOAA